LTCA

Details ICAO LTCA (EZS)
Name ELAZIG
Region Turkey
Timezone Europe/Istanbul (UTC+3.0)
Plans Departing 44
Arriving 40
Stats Elevation 2,927 ft / 892 m (AMSL)
Location 38.606925° 39.291415°
Runways 1
Magnetic Variation 5.807° E
Sunrise 2018-05-26 02:04:44 UTC / 2018-05-26 05:04:44 Local
Sunset 2018-05-26 16:37:53 UTC / 2018-05-26 19:37:53 Local
Advertisement - Login to hide

Runways

ID Width Length Bearing (true) Bearing (mag) Surface Threshold Offset Overrun Length
13 105 ft / 32 m 5,616 ft / 1,712 m 134.22° 128.41° Asphalt 0 ft / 0 m 206 ft / 63 m
31 105 ft / 32 m 5,616 ft / 1,712 m 314.23° 308.42° Asphalt 0 ft / 0 m 206 ft / 63 m

Map

Weather


0- 5 10 15 20 25 30 35+ Temperature / ° C

Clouds and Precipitation
Forecast for 2018-05-26 06:00 UTC. Updated an hour ago

Ground ~20,000 ft ~40,000 ft Winds

METAR

LTCA 260550Z 09005KT 030V120 CAVOK 23/11 Q1013 NOSIG

TAF

Not found

Frequencies

Tower 118.10 MHz TWR
Approach 118.10 MHz APP
Warning: Do not use this data for real-world aviation or navigation. No guarantee of current accuracy is given.